Pays
Station

 

Conditions  météo  pour  Ramona, Ramona Airport  -  Etats-Unis    Etats-Unis

  
13 °C
    
 
 

METAR pour Ramona, Ramona Airport :

KRNM 212153Z 28017KT 10SM CLR 13/02 A3002 RMK AO2 SLP159 T01280022

 

Voici le bulletin pour Ramona, Ramona Airport - Etats-Unis.
 
Le bulletin a été fait il y a 7 minutes, à 21:53 UTC .
Le vent soufflait à la vitesse de 8.7 mètres par seconde de Ouest (280°).
 
La température était de 13 °C, avec un point de rosée à 2 °C.
La pression atmosphérique était de 1017 hPa.
L'humidité relative était de 47.1%.
 
Le ciel était clair.
 
La visibilité globale était de 16.1 kilomètres.
 

 
 
 

Pays :   A   B   C   D   E   F   G   H   I   J   K   L   M   N   O   P   Q   R   S   T   U   V   W   Y   Z

 

Partenaires :  Info Météo avec Met'info
Météo Marine avec MeteoMarine.net
Infos Site  |  Infos Légales  |  Crédits  |  Confidentialité
Contactez-nous  |  Ajouter aux favoris
© 2013-2019 METAR - Tous droits réservés